createdAt,value
2022-10-06T00:00:54.014Z,0.80
2022-10-06T00:03:23.911Z,0.77
2022-10-06T00:05:52.568Z,0.70
2022-10-06T00:08:20.597Z,0.70
2022-10-06T00:10:48.514Z,0.60
2022-10-06T00:13:16.464Z,0.60
2022-10-06T00:15:44.410Z,0.73
2022-10-06T00:18:12.310Z,0.70
2022-10-06T00:20:43.384Z,0.80
2022-10-06T00:23:11.409Z,0.57
2022-10-06T00:25:39.351Z,0.60
2022-10-06T00:28:07.409Z,0.63
2022-10-06T00:30:35.318Z,0.50
2022-10-06T00:33:04.612Z,0.68
2022-10-06T00:35:34.381Z,0.73
2022-10-06T00:38:04.521Z,0.70
2022-10-06T00:40:33.203Z,0.70
2022-10-06T00:43:02.626Z,0.52
2022-10-06T00:45:34.982Z,0.73
2022-10-06T00:48:10.640Z,0.50
2022-10-06T00:50:39.320Z,0.60
2022-10-06T00:53:09.073Z,0.70
2022-10-06T00:55:37.057Z,0.70
2022-10-06T00:58:06.044Z,0.70
2022-10-06T01:00:34.930Z,0.70
2022-10-06T01:03:08.148Z,0.88
2022-10-06T01:05:43.489Z,0.60
2022-10-06T01:08:12.833Z,1.08
2022-10-06T01:10:40.724Z,1.05
2022-10-06T01:13:10.501Z,0.70
2022-10-06T01:15:45.717Z,0.60
2022-10-06T01:18:16.191Z,0.90
2022-10-06T01:20:51.618Z,0.73
2022-10-06T01:23:21.660Z,0.80
2022-10-06T01:25:50.135Z,0.80
2022-10-06T01:28:18.178Z,0.88
2022-10-06T01:30:52.590Z,0.73
2022-10-06T01:33:22.738Z,0.75
2022-10-06T01:35:53.427Z,0.60
2022-10-06T01:38:22.948Z,0.65
2022-10-06T01:40:55.470Z,0.65
2022-10-06T01:43:23.361Z,0.80
2022-10-06T01:45:56.363Z,0.75
2022-10-06T01:48:25.055Z,0.60
2022-10-06T01:50:54.266Z,0.90
2022-10-06T01:53:24.005Z,1.15
2022-10-06T01:55:51.980Z,0.75
2022-10-06T01:58:25.075Z,1.00
2022-10-06T02:00:53.250Z,0.88
2022-10-06T02:03:21.249Z,0.90
2022-10-06T02:05:49.217Z,0.75
2022-10-06T02:08:17.113Z,1.17
2022-10-06T02:10:46.436Z,0.90
2022-10-06T02:13:21.441Z,0.68
2022-10-06T02:15:49.506Z,0.80
2022-10-06T02:18:17.489Z,0.77
2022-10-06T02:20:45.371Z,1.15
2022-10-06T02:23:14.313Z,0.70
2022-10-06T02:25:42.185Z,1.10
2022-10-06T02:28:11.532Z,0.90
2022-10-06T02:30:39.683Z,0.75
2022-10-06T02:33:07.723Z,0.80
2022-10-06T02:35:35.572Z,1.05
2022-10-06T02:38:03.605Z,1.00
2022-10-06T02:40:31.638Z,0.88
2022-10-06T02:42:59.710Z,0.75
2022-10-06T02:45:31.096Z,1.10
2022-10-06T02:47:59.054Z,0.70
2022-10-06T02:50:28.113Z,0.80
2022-10-06T02:52:57.044Z,0.95
2022-10-06T02:55:24.954Z,1.00
2022-10-06T02:57:55.461Z,0.90
2022-10-06T03:00:23.584Z,1.02
2022-10-06T03:02:53.928Z,0.80
2022-10-06T03:05:22.146Z,1.08
2022-10-06T03:07:50.000Z,0.82
2022-10-06T03:10:18.514Z,1.00
2022-10-06T03:12:46.380Z,1.02
2022-10-06T03:15:14.269Z,0.80
2022-10-06T03:17:42.174Z,1.00
2022-10-06T03:20:11.504Z,1.02
2022-10-06T03:22:39.376Z,1.00
2022-10-06T03:25:09.004Z,1.15
2022-10-06T03:27:37.124Z,1.00
2022-10-06T03:30:08.210Z,1.45
2022-10-06T03:32:38.166Z,0.98
2022-10-06T03:35:08.192Z,1.17
2022-10-06T03:37:37.689Z,0.80
2022-10-06T03:40:06.718Z,1.20
2022-10-06T03:42:34.593Z,1.10
2022-10-06T03:45:02.492Z,1.00
2022-10-06T03:47:31.813Z,1.42
2022-10-06T03:49:59.670Z,1.00
2022-10-06T03:52:27.985Z,1.00
2022-10-06T03:54:57.393Z,1.00
2022-10-06T03:57:25.432Z,1.00
2022-10-06T03:59:53.976Z,1.15
2022-10-06T04:02:21.977Z,1.17
2022-10-06T04:04:49.854Z,1.00
2022-10-06T04:07:18.452Z,1.00
2022-10-06T04:09:47.162Z,1.13
2022-10-06T04:12:17.769Z,0.90
2022-10-06T04:14:45.741Z,1.00
2022-10-06T04:17:13.659Z,1.15
2022-10-06T04:19:42.690Z,0.90
2022-10-06T04:22:10.703Z,1.30
2022-10-06T04:24:38.545Z,1.23
2022-10-06T04:27:29.528Z,1.10
2022-10-06T04:30:09.694Z,1.02
2022-10-06T04:32:37.901Z,0.70
2022-10-06T04:35:06.276Z,0.55
2022-10-06T04:37:34.453Z,0.68
2022-10-06T04:40:03.299Z,0.65
2022-10-06T04:42:35.255Z,0.63
2022-10-06T04:45:09.254Z,0.68
2022-10-06T04:47:38.455Z,0.80
2022-10-06T04:50:07.234Z,0.57
2022-10-06T04:52:35.746Z,0.50
2022-10-06T04:55:03.673Z,0.50
2022-10-06T04:57:31.877Z,0.40
2022-10-06T05:00:17.976Z,0.50
2022-10-06T05:02:49.081Z,0.40
2022-10-06T05:05:17.261Z,0.40
2022-10-06T05:07:46.077Z,0.50
2022-10-06T05:10:14.824Z,0.45
2022-10-06T05:12:43.097Z,0.40
2022-10-06T05:15:11.778Z,0.30
2022-10-06T05:17:39.640Z,0.57
2022-10-06T05:20:11.662Z,0.28
2022-10-06T05:22:39.574Z,0.40
2022-10-06T05:25:08.357Z,0.30
2022-10-06T05:27:36.281Z,0.32
2022-10-06T05:30:04.432Z,0.40
2022-10-06T05:32:35.935Z,0.25
2022-10-06T05:35:05.056Z,0.40
2022-10-06T05:37:34.407Z,0.40
2022-10-06T05:40:02.856Z,0.50
2022-10-06T05:42:31.117Z,0.60
2022-10-06T05:45:00.150Z,0.50
2022-10-06T05:47:28.282Z,0.70
2022-10-06T05:49:56.176Z,0.40
2022-10-06T05:52:24.353Z,0.35
2022-10-06T05:54:54.560Z,0.50
2022-10-06T05:57:22.628Z,0.30
2022-10-06T05:59:50.519Z,0.82
2022-10-06T06:02:18.781Z,0.50
2022-10-06T06:04:47.557Z,0.32
2022-10-06T06:07:15.478Z,0.45
2022-10-06T06:09:46.529Z,0.60
2022-10-06T06:12:16.183Z,0.40
2022-10-06T06:15:07.476Z,0.52
2022-10-06T06:17:53.635Z,0.52
2022-10-06T06:20:21.637Z,0.32
2022-10-06T06:22:53.311Z,0.35
2022-10-06T06:25:23.530Z,0.40
2022-10-06T06:27:55.355Z,0.40
2022-10-06T06:30:24.342Z,0.32
2022-10-06T06:32:52.594Z,0.40
2022-10-06T06:35:20.485Z,0.40
2022-10-06T06:37:48.935Z,0.50
2022-10-06T06:40:17.030Z,0.38
2022-10-06T06:42:44.977Z,0.45
2022-10-06T06:45:31.478Z,0.50
2022-10-06T06:48:15.516Z,0.50
2022-10-06T06:50:45.851Z,0.40
2022-10-06T06:53:16.181Z,0.30
2022-10-06T06:55:51.111Z,0.60
2022-10-06T06:58:21.302Z,0.50
2022-10-06T07:00:51.151Z,1.55
2022-10-06T07:03:45.233Z,0.98
2022-10-06T07:06:12.632Z,0.65
2022-10-06T07:08:43.749Z,1.05
2022-10-06T07:11:14.285Z,0.88
2022-10-06T07:13:43.524Z,0.88
2022-10-06T07:16:32.316Z,1.00
2022-10-06T07:19:21.296Z,1.10
2022-10-06T07:22:11.988Z,1.05
2022-10-06T07:24:58.100Z,1.45
2022-10-06T07:27:26.585Z,1.00
2022-10-06T07:29:55.273Z,1.00
2022-10-06T07:32:27.123Z,0.70
2022-10-06T07:34:55.833Z,1.00
2022-10-06T07:37:24.136Z,1.05
2022-10-06T07:39:52.730Z,1.50
2022-10-06T07:42:21.290Z,1.23
2022-10-06T07:45:09.752Z,1.23
2022-10-06T07:47:41.706Z,1.20
2022-10-06T07:50:12.937Z,1.13
2022-10-06T07:52:41.233Z,1.20
2022-10-06T07:55:09.694Z,1.48
2022-10-06T07:57:46.287Z,1.55
2022-10-06T08:00:15.723Z,0.90
2022-10-06T08:02:45.028Z,1.00
2022-10-06T08:05:12.978Z,1.08
2022-10-06T08:07:41.629Z,0.85
2022-10-06T08:10:10.221Z,0.80
2022-10-06T08:12:40.203Z,0.88
2022-10-06T08:15:11.477Z,0.90
2022-10-06T08:17:39.734Z,0.70
2022-10-06T08:20:11.926Z,0.82
2022-10-06T08:22:41.288Z,1.00
2022-10-06T08:25:11.057Z,0.63
2022-10-06T08:27:40.487Z,0.93
2022-10-06T08:30:09.458Z,1.35
2022-10-06T08:32:37.456Z,0.85
2022-10-06T08:35:05.629Z,0.75
2022-10-06T08:37:34.899Z,0.70
2022-10-06T08:40:02.831Z,0.90
2022-10-06T08:42:42.475Z,0.88
2022-10-06T08:45:15.689Z,1.05
2022-10-06T08:47:51.857Z,0.75
2022-10-06T08:50:22.265Z,0.93
2022-10-06T08:53:02.317Z,1.40
2022-10-06T08:55:39.682Z,1.00
2022-10-06T08:58:29.059Z,0.95
2022-10-06T09:00:57.476Z,1.00
2022-10-06T09:03:30.363Z,0.90
2022-10-06T09:06:09.041Z,1.00
2022-10-06T09:08:51.010Z,1.40
2022-10-06T09:11:33.331Z,1.50
2022-10-06T09:14:05.849Z,0.95
2022-10-06T09:16:39.016Z,1.05
2022-10-06T09:19:15.204Z,0.80
2022-10-06T09:21:46.852Z,1.63
2022-10-06T09:24:21.224Z,1.27
2022-10-06T09:26:52.317Z,1.10
2022-10-06T09:29:20.336Z,1.30
2022-10-06T09:31:50.553Z,1.20
2022-10-06T09:34:25.803Z,0.85
2022-10-06T09:37:05.018Z,1.27
2022-10-06T09:39:37.297Z,3.65
2022-10-06T09:42:12.521Z,2.10
2022-10-06T09:44:48.251Z,2.55
2022-10-06T09:47:35.760Z,1.98
2022-10-06T09:50:12.609Z,1.80
2022-10-06T09:52:42.282Z,1.90
2022-10-06T09:55:13.995Z,1.45
2022-10-06T09:57:49.947Z,1.95
2022-10-06T10:00:28.161Z,1.77
2022-10-06T10:03:00.663Z,1.17
2022-10-06T10:05:30.812Z,1.55
2022-10-06T10:08:03.021Z,1.50
2022-10-06T10:10:34.472Z,1.55
2022-10-06T10:13:02.385Z,1.60
2022-10-06T10:15:33.865Z,1.83
2022-10-06T10:18:04.182Z,1.40
2022-10-06T10:20:38.284Z,1.30
2022-10-06T10:23:28.594Z,1.45
2022-10-06T10:26:14.577Z,1.63
2022-10-06T10:29:00.431Z,1.27
2022-10-06T10:31:33.597Z,0.90
2022-10-06T10:34:23.540Z,1.15
2022-10-06T10:36:55.652Z,1.33
2022-10-06T10:39:33.087Z,1.23
2022-10-06T10:42:05.452Z,0.90
2022-10-06T10:44:36.006Z,1.02
2022-10-06T10:47:14.500Z,0.77
2022-10-06T10:49:46.539Z,0.80
2022-10-06T10:52:18.814Z,0.95
2022-10-06T10:54:53.323Z,0.88
2022-10-06T10:57:29.072Z,0.60
2022-10-06T11:00:02.232Z,0.70
2022-10-06T11:02:31.188Z,0.90
2022-10-06T11:05:03.945Z,1.10
2022-10-06T11:07:39.143Z,1.00
2022-10-06T11:10:13.491Z,0.80
2022-10-06T11:13:02.136Z,0.70
2022-10-06T11:15:45.377Z,1.05
2022-10-06T11:18:26.161Z,0.50
2022-10-06T11:21:01.031Z,0.65
2022-10-06T11:23:45.285Z,0.60
2022-10-06T11:26:26.997Z,0.47
2022-10-06T11:29:02.164Z,0.45
2022-10-06T11:31:37.015Z,0.50
2022-10-06T11:34:06.513Z,0.70
2022-10-06T11:36:43.365Z,0.68
2022-10-06T11:39:24.552Z,0.82
2022-10-06T11:41:58.952Z,0.52
2022-10-06T11:44:37.662Z,0.63
2022-10-06T11:47:09.400Z,0.68
2022-10-06T11:49:48.261Z,0.73
2022-10-06T11:52:56.367Z,0.40
2022-10-06T11:55:28.958Z,0.70
2022-10-06T11:58:40.843Z,0.70
2022-10-06T12:01:07.326Z,0.43
2022-10-06T12:04:14.413Z,0.90
2022-10-06T12:07:04.106Z,0.70
2022-10-06T12:09:51.962Z,0.82
2022-10-06T12:12:44.714Z,1.17
2022-10-06T12:18:46.439Z,1.20
2022-10-06T12:21:32.017Z,1.05
2022-10-06T12:24:06.420Z,1.02
2022-10-06T12:26:49.385Z,1.50
2022-10-06T12:29:33.722Z,1.20
2022-10-06T12:32:13.059Z,1.02
2022-10-06T12:34:58.478Z,1.13
2022-10-06T12:37:47.968Z,0.90
2022-10-06T12:40:47.877Z,1.00
2022-10-06T12:43:35.080Z,1.10
2022-10-06T12:46:08.131Z,0.80
2022-10-06T12:48:41.495Z,0.98
2022-10-06T12:51:23.676Z,1.33
2022-10-06T12:53:58.434Z,1.35
2022-10-06T12:56:32.250Z,1.00
2022-10-06T12:59:19.821Z,1.05
2022-10-06T13:01:48.808Z,1.17
2022-10-06T13:04:41.152Z,0.77
2022-10-06T13:07:19.179Z,1.20
2022-10-06T13:09:50.009Z,0.93
2022-10-06T13:12:39.160Z,0.82
2022-10-06T13:15:11.673Z,0.73
2022-10-06T13:17:42.333Z,1.42
2022-10-06T13:20:20.640Z,1.20
2022-10-06T13:22:58.711Z,1.52
2022-10-06T13:25:28.762Z,1.75
2022-10-06T13:27:56.699Z,1.20
2022-10-06T13:30:25.085Z,1.13
2022-10-06T13:32:54.468Z,1.63
2022-10-06T13:35:25.477Z,1.33
2022-10-06T13:37:55.395Z,1.35
2022-10-06T13:40:44.111Z,1.85
2022-10-06T13:43:18.351Z,1.58
2022-10-06T13:45:49.385Z,1.30
2022-10-06T13:48:22.009Z,1.38
2022-10-06T13:50:53.067Z,1.10
2022-10-06T13:53:27.353Z,1.05
2022-10-06T13:55:56.830Z,1.52
2022-10-06T13:58:28.309Z,1.27
2022-10-06T14:01:00.578Z,0.88
2022-10-06T14:03:33.854Z,1.23
2022-10-06T14:06:15.022Z,1.58
2022-10-06T14:08:47.083Z,1.60
2022-10-06T14:11:24.185Z,1.05
2022-10-06T14:13:56.261Z,1.60
2022-10-06T14:16:26.345Z,1.35
2022-10-06T14:18:56.707Z,1.33
2022-10-06T14:21:35.622Z,1.30
2022-10-06T14:24:07.602Z,1.02
2022-10-06T14:26:39.825Z,1.27
2022-10-06T14:29:07.740Z,1.70
2022-10-06T14:31:35.754Z,1.40
2022-10-06T14:34:05.252Z,1.02
2022-10-06T14:36:35.478Z,1.35
2022-10-06T14:39:05.502Z,1.27
2022-10-06T14:41:33.944Z,1.40
2022-10-06T14:44:06.300Z,1.13
2022-10-06T14:46:34.916Z,1.77
2022-10-06T14:49:05.997Z,1.00
2022-10-06T14:51:36.555Z,1.27
2022-10-06T14:54:06.087Z,1.48
2022-10-06T14:56:36.311Z,1.67
2022-10-06T14:59:07.473Z,1.50
2022-10-06T15:01:37.133Z,1.08
2022-10-06T15:04:07.493Z,1.05
2022-10-06T15:06:52.721Z,1.10
2022-10-06T15:09:20.596Z,1.00
2022-10-06T15:11:48.752Z,0.95
2022-10-06T15:14:17.984Z,1.17
2022-10-06T15:16:45.948Z,1.02
2022-10-06T15:19:14.326Z,0.98
2022-10-06T15:21:45.397Z,1.15
2022-10-06T15:24:15.677Z,0.95
2022-10-06T15:27:01.402Z,0.90
2022-10-06T15:29:30.986Z,1.10
2022-10-06T15:32:00.285Z,1.65
2022-10-06T15:34:30.329Z,0.85
2022-10-06T15:36:59.203Z,0.90
2022-10-06T15:39:29.458Z,1.00
2022-10-06T15:41:57.722Z,1.08
2022-10-06T15:44:25.951Z,0.93
2022-10-06T15:46:56.491Z,1.10
2022-10-06T15:49:26.000Z,1.48
2022-10-06T15:51:56.799Z,1.35
2022-10-06T15:54:26.877Z,1.00
2022-10-06T15:56:56.072Z,1.65
2022-10-06T15:59:25.523Z,1.48
2022-10-06T16:01:57.343Z,1.60
2022-10-06T16:04:33.091Z,1.70
2022-10-06T16:07:01.796Z,1.50
2022-10-06T16:09:31.749Z,1.60
2022-10-06T16:12:02.627Z,1.38
2022-10-06T16:14:31.118Z,1.88
2022-10-06T16:17:01.610Z,1.33
2022-10-06T16:19:30.773Z,1.67
2022-10-06T16:21:59.355Z,1.23
2022-10-06T16:24:28.065Z,1.38
2022-10-06T16:26:58.031Z,1.42
2022-10-06T16:29:25.989Z,1.70
2022-10-06T16:31:54.265Z,1.23
2022-10-06T16:34:25.378Z,1.65
2022-10-06T16:36:53.505Z,1.65
2022-10-06T16:39:23.280Z,1.55
2022-10-06T16:41:52.266Z,1.45
2022-10-06T16:44:20.141Z,1.38
2022-10-06T16:46:48.092Z,1.70
2022-10-06T16:49:16.021Z,1.50
2022-10-06T16:51:46.800Z,1.70
2022-10-06T16:54:17.081Z,1.27
2022-10-06T16:56:47.273Z,1.67
2022-10-06T16:59:16.869Z,1.55
2022-10-06T17:01:45.656Z,1.52
2022-10-06T17:04:15.382Z,1.40
2022-10-06T17:06:46.874Z,2.63
2022-10-06T17:09:16.858Z,1.75
2022-10-06T17:11:46.675Z,1.83
2022-10-06T17:14:14.929Z,1.52
2022-10-06T17:16:44.992Z,1.50
2022-10-06T17:19:13.773Z,1.73
2022-10-06T17:21:47.118Z,1.70
2022-10-06T17:24:18.710Z,1.70
2022-10-06T17:26:48.212Z,1.90
2022-10-06T17:29:18.751Z,1.52
2022-10-06T17:31:47.564Z,1.83
2022-10-06T17:34:20.802Z,1.98
2022-10-06T17:36:51.335Z,1.77
2022-10-06T17:39:22.535Z,1.58
2022-10-06T17:41:52.613Z,1.77
2022-10-06T17:44:22.932Z,1.70
2022-10-06T17:46:53.307Z,1.65
2022-10-06T17:49:22.630Z,1.70
2022-10-06T17:51:51.862Z,1.60
2022-10-06T17:54:23.435Z,1.60
2022-10-06T17:56:54.206Z,1.73
2022-10-06T17:59:24.057Z,1.30
2022-10-06T18:01:52.897Z,1.73
2022-10-06T18:04:20.974Z,1.83
2022-10-06T18:06:49.161Z,1.70
2022-10-06T18:09:18.353Z,1.63
2022-10-06T18:11:48.404Z,1.73
2022-10-06T18:14:18.181Z,1.77
2022-10-06T18:16:53.469Z,1.70
2022-10-06T18:19:24.302Z,1.88
2022-10-06T18:21:52.349Z,1.42
2022-10-06T18:24:22.729Z,1.65
2022-10-06T18:26:54.259Z,1.80
2022-10-06T18:29:24.309Z,2.33
2022-10-06T18:31:54.397Z,2.13
2022-10-06T18:37:10.559Z,1.55
2022-10-06T18:39:38.455Z,1.92
2022-10-06T18:42:08.360Z,2.35
2022-10-06T18:44:54.293Z,1.60
2022-10-06T18:47:39.773Z,1.85
2022-10-06T18:50:08.459Z,1.77
2022-10-06T18:52:36.476Z,2.13
2022-10-06T18:55:04.521Z,2.40
2022-10-06T18:57:33.781Z,1.75
2022-10-06T19:00:01.754Z,1.80
2022-10-06T19:02:29.900Z,2.10
2022-10-06T19:04:57.884Z,1.80
2022-10-06T19:07:32.345Z,1.63
2022-10-06T19:10:01.395Z,1.98
2022-10-06T19:12:29.837Z,1.80
2022-10-06T19:14:59.343Z,2.00
2022-10-06T19:17:27.954Z,1.27
2022-10-06T19:19:57.100Z,1.80
2022-10-06T19:22:25.691Z,1.95
2022-10-06T19:24:53.900Z,1.60
2022-10-06T19:27:25.568Z,1.90
2022-10-06T19:29:56.893Z,1.70
2022-10-06T19:32:29.095Z,1.70
2022-10-06T19:34:58.803Z,2.05
2022-10-06T19:37:28.001Z,1.92
2022-10-06T19:39:56.392Z,2.10
2022-10-06T19:42:41.890Z,2.33
2022-10-06T19:45:11.929Z,1.90
2022-10-06T19:47:42.413Z,2.28
2022-10-06T19:50:12.031Z,1.60
2022-10-06T19:52:40.935Z,2.10
2022-10-06T19:55:09.150Z,2.17
2022-10-06T19:57:37.166Z,2.35
2022-10-06T20:00:06.793Z,2.15
2022-10-06T20:02:43.933Z,2.17
2022-10-06T20:05:13.025Z,1.50
2022-10-06T20:07:41.346Z,2.20
2022-10-06T20:10:09.773Z,2.30
2022-10-06T20:12:38.427Z,1.95
2022-10-06T20:15:07.338Z,2.67
2022-10-06T20:17:35.778Z,1.75
2022-10-06T20:20:05.538Z,2.40
2022-10-06T20:22:33.508Z,2.00
2022-10-06T20:25:02.493Z,2.08
2022-10-06T20:27:30.419Z,1.95
2022-10-06T20:29:58.374Z,2.60
2022-10-06T20:32:26.316Z,2.13
2022-10-06T20:34:54.332Z,2.80
2022-10-06T20:37:23.572Z,2.70
2022-10-06T20:40:08.849Z,3.03
2022-10-06T20:42:36.753Z,2.17
2022-10-06T20:45:05.024Z,2.38
2022-10-06T20:47:32.953Z,2.67
2022-10-06T20:50:00.891Z,2.70
2022-10-06T20:52:31.692Z,2.60
2022-10-06T20:54:59.596Z,2.15
2022-10-06T20:57:33.518Z,3.10
2022-10-06T21:00:01.810Z,2.47
2022-10-06T21:02:31.454Z,2.50
2022-10-06T21:04:59.878Z,2.83
2022-10-06T21:07:27.723Z,2.28
2022-10-06T21:09:56.970Z,3.25
2022-10-06T21:12:24.835Z,2.70
2022-10-06T21:14:52.708Z,3.00
2022-10-06T21:17:20.615Z,2.97
2022-10-06T21:19:48.483Z,2.80
2022-10-06T21:22:16.359Z,2.47
2022-10-06T21:24:44.482Z,2.85
2022-10-06T21:27:14.038Z,2.53
2022-10-06T21:29:41.902Z,2.33
2022-10-06T21:32:10.390Z,3.10
2022-10-06T21:34:40.184Z,2.83
2022-10-06T21:37:08.115Z,2.60
2022-10-06T21:39:35.999Z,3.15
2022-10-06T21:42:04.123Z,2.55
2022-10-06T21:44:33.462Z,3.00
2022-10-06T21:47:02.612Z,2.65
2022-10-06T21:49:30.663Z,2.67
2022-10-06T21:52:03.544Z,2.67
2022-10-06T21:54:31.763Z,2.55
2022-10-06T21:56:59.691Z,2.38
2022-10-06T21:59:27.580Z,2.47
2022-10-06T22:01:57.010Z,2.78
2022-10-06T22:04:24.975Z,2.20
2022-10-06T22:06:52.910Z,2.63
2022-10-06T22:09:21.372Z,2.50
2022-10-06T22:11:49.520Z,2.47
2022-10-06T22:14:19.302Z,2.67
2022-10-06T22:16:47.366Z,2.00
2022-10-06T22:19:17.924Z,2.45
2022-10-06T22:21:47.667Z,2.63
2022-10-06T22:24:18.279Z,3.28
2022-10-06T22:26:46.981Z,2.42
2022-10-06T22:29:16.644Z,2.80
2022-10-06T22:31:46.171Z,2.60
2022-10-06T22:34:17.685Z,2.47
2022-10-06T22:36:45.695Z,2.50
2022-10-06T22:39:13.594Z,1.65
2022-10-06T22:41:41.615Z,2.30
2022-10-06T22:44:09.546Z,2.28
2022-10-06T22:46:38.515Z,2.38
2022-10-06T22:49:07.084Z,2.13
2022-10-06T22:51:36.856Z,2.30
2022-10-06T22:54:05.244Z,2.65
2022-10-06T22:56:33.911Z,2.22
2022-10-06T22:59:02.416Z,2.35
2022-10-06T23:01:31.026Z,2.42
2022-10-06T23:03:59.415Z,2.33
2022-10-06T23:06:29.757Z,3.00
2022-10-06T23:08:59.143Z,2.30
2022-10-06T23:11:27.035Z,2.40
2022-10-06T23:13:55.000Z,2.22
2022-10-06T23:16:23.574Z,2.40
2022-10-06T23:18:51.837Z,2.97
2022-10-06T23:21:22.641Z,2.53
2022-10-06T23:23:52.985Z,2.13
2022-10-06T23:26:23.518Z,2.30
2022-10-06T23:28:53.099Z,3.00
2022-10-06T23:31:21.239Z,2.47
2022-10-06T23:33:49.262Z,2.50
2022-10-06T23:36:17.781Z,2.50
2022-10-06T23:38:46.012Z,2.70
2022-10-06T23:41:14.524Z,2.20
2022-10-06T23:43:43.787Z,2.63
2022-10-06T23:46:12.198Z,2.53
2022-10-06T23:48:40.490Z,2.60
2022-10-06T23:51:09.761Z,2.53
2022-10-06T23:53:38.145Z,2.70
2022-10-06T23:56:06.820Z,2.58
2022-10-06T23:58:34.904Z,2.53
